sensor_id;sensor_type;location;lat;lon;timestamp;pressure;altitude;pressure_sealevel;temperature;humidity
58658;BME280;44428;45.630;13.786;2022-12-29T00:01:34;102228.28;;;9.70;99.17
58658;BME280;44428;45.630;13.786;2022-12-29T00:04:00;102231.97;;;9.66;99.75
58658;BME280;44428;45.630;13.786;2022-12-29T00:06:26;102225.94;;;9.62;99.72
58658;BME280;44428;45.630;13.786;2022-12-29T00:08:52;102221.56;;;9.62;100.00
58658;BME280;44428;45.630;13.786;2022-12-29T00:11:20;102216.41;;;9.59;100.00
58658;BME280;44428;45.630;13.786;2022-12-29T00:13:47;102210.31;;;9.57;100.00
58658;BME280;44428;45.630;13.786;2022-12-29T00:16:32;102208.28;;;9.64;99.49
58658;BME280;44428;45.630;13.786;2022-12-29T00:18:58;102203.25;;;9.58;100.00
58658;BME280;44428;45.630;13.786;2022-12-29T00:21:25;102205.84;;;9.59;100.00
58658;BME280;44428;45.630;13.786;2022-12-29T00:24:13;102200.44;;;9.62;99.45
58658;BME280;44428;45.630;13.786;2022-12-29T00:29:50;102198.06;;;9.56;99.72
58658;BME280;44428;45.630;13.786;2022-12-29T00:32:35;102196.53;;;9.51;100.00
58658;BME280;44428;45.630;13.786;2022-12-29T00:35:27;102196.59;;;9.49;100.00
58658;BME280;44428;45.630;13.786;2022-12-29T00:37:55;102191.31;;;9.49;100.00
58658;BME280;44428;45.630;13.786;2022-12-29T00:40:41;102174.56;;;9.50;100.00
58658;BME280;44428;45.630;13.786;2022-12-29T00:43:25;102179.72;;;9.53;100.00
58658;BME280;44428;45.630;13.786;2022-12-29T00:46:09;102183.09;;;9.57;100.00
58658;BME280;44428;45.630;13.786;2022-12-29T00:48:35;102181.44;;;9.54;100.00
58658;BME280;44428;45.630;13.786;2022-12-29T00:51:19;102185.00;;;9.53;100.00
58658;BME280;44428;45.630;13.786;2022-12-29T00:53:45;102178.00;;;9.52;100.00
58658;BME280;44428;45.630;13.786;2022-12-29T00:56:11;102171.81;;;9.53;100.00
58658;BME280;44428;45.630;13.786;2022-12-29T00:58:36;102175.28;;;9.54;100.00
58658;BME280;44428;45.630;13.786;2022-12-29T01:01:03;102170.75;;;9.57;100.00
58658;BME280;44428;45.630;13.786;2022-12-29T01:03:29;102154.91;;;9.57;100.00
58658;BME280;44428;45.630;13.786;2022-12-29T01:05:55;102167.03;;;9.61;99.44
58658;BME280;44428;45.630;13.786;2022-12-29T01:08:21;102167.31;;;9.55;99.90
58658;BME280;44428;45.630;13.786;2022-12-29T01:10:46;102165.84;;;9.48;100.00
58658;BME280;44428;45.630;13.786;2022-12-29T01:13:12;102162.41;;;9.46;100.00
58658;BME280;44428;45.630;13.786;2022-12-29T01:15:38;102165.84;;;9.48;100.00
58658;BME280;44428;45.630;13.786;2022-12-29T01:18:03;102166.00;;;9.45;100.00
58658;BME280;44428;45.630;13.786;2022-12-29T01:20:29;102188.81;;;9.46;100.00
58658;BME280;44428;45.630;13.786;2022-12-29T01:22:55;102188.81;;;9.46;100.00
58658;BME280;44428;45.630;13.786;2022-12-29T01:25:21;102175.59;;;9.46;100.00
58658;BME280;44428;45.630;13.786;2022-12-29T01:27:47;102180.84;;;9.48;99.99
58658;BME280;44428;45.630;13.786;2022-12-29T01:30:12;102179.72;;;9.53;99.46
58658;BME280;44428;45.630;13.786;2022-12-29T01:32:38;102178.00;;;9.52;99.80
58658;BME280;44428;45.630;13.786;2022-12-29T01:35:04;102188.66;;;9.49;100.00
58658;BME280;44428;45.630;13.786;2022-12-29T01:37:30;102178.25;;;9.46;100.00
58658;BME280;44428;45.630;13.786;2022-12-29T01:39:55;102173.69;;;9.50;100.00
58658;BME280;44428;45.630;13.786;2022-12-29T01:42:24;102176.41;;;9.48;100.00
58658;BME280;44428;45.630;13.786;2022-12-29T01:44:56;102176.41;;;9.48;100.00
58658;BME280;44428;45.630;13.786;2022-12-29T01:47:39;102180.84;;;9.48;100.00
58658;BME280;44428;45.630;13.786;2022-12-29T01:55:29;102183.25;;;9.52;99.64
58658;BME280;44428;45.630;13.786;2022-12-29T01:57:59;102178.00;;;9.52;100.00
58658;BME280;44428;45.630;13.786;2022-12-29T02:00:27;102167.44;;;9.52;100.00
58658;BME280;44428;45.630;13.786;2022-12-29T02:02:53;102163.00;;;9.53;100.00
58658;BME280;44428;45.630;13.786;2022-12-29T02:05:25;102171.00;;;9.51;100.00
58658;BME280;44428;45.630;13.786;2022-12-29T02:07:52;102164.16;;;9.47;100.00
58658;BME280;44428;45.630;13.786;2022-12-29T02:10:24;102148.31;;;9.47;100.00
58658;BME280;44428;45.630;13.786;2022-12-29T02:12:51;102146.06;;;9.58;99.16
58658;BME280;44428;45.630;13.786;2022-12-29T02:15:17;102149.38;;;9.63;98.82
58658;BME280;44428;45.630;13.786;2022-12-29T02:17:56;102151.19;;;9.61;99.27
58658;BME280;44428;45.630;13.786;2022-12-29T02:28:36;102127.97;;;9.70;97.63
58658;BME280;44428;45.630;13.786;2022-12-29T02:36:14;102097.25;;;9.69;97.81
58658;BME280;44428;45.630;13.786;2022-12-29T02:39:11;102082.44;;;9.64;97.99
58658;BME280;44428;45.630;13.786;2022-12-29T02:42:08;102094.25;;;9.56;98.92
58658;BME280;44428;45.630;13.786;2022-12-29T02:50:34;102055.91;;;9.49;98.20
58658;BME280;44428;45.630;13.786;2022-12-29T02:53:15;102085.25;;;9.41;97.88
58658;BME280;44428;45.630;13.786;2022-12-29T02:55:48;102096.19;;;9.32;98.30
58658;BME280;44428;45.630;13.786;2022-12-29T02:58:20;102103.47;;;9.27;98.77
58658;BME280;44428;45.630;13.786;2022-12-29T03:01:02;102115.84;;;9.25;99.74
58658;BME280;44428;45.630;13.786;2022-12-29T03:03:53;102119.66;;;9.17;100.00
58658;BME280;44428;45.630;13.786;2022-12-29T03:11:46;102114.66;;;9.11;100.00
58658;BME280;44428;45.630;13.786;2022-12-29T03:14:39;102122.75;;;9.07;100.00
58658;BME280;44428;45.630;13.786;2022-12-29T03:20:36;102115.94;;;9.01;100.00
58658;BME280;44428;45.630;13.786;2022-12-29T03:23:05;102117.59;;;9.04;100.00
58658;BME280;44428;45.630;13.786;2022-12-29T03:25:42;102107.06;;;9.04;100.00
58658;BME280;44428;45.630;13.786;2022-12-29T03:28:13;102106.88;;;9.08;100.00
58658;BME280;44428;45.630;13.786;2022-12-29T03:30:46;102110.22;;;9.12;100.00
58658;BME280;44428;45.630;13.786;2022-12-29T03:33:17;102110.97;;;9.15;100.00
58658;BME280;44428;45.630;13.786;2022-12-29T03:35:44;102102.13;;;9.16;100.00
58658;BME280;44428;45.630;13.786;2022-12-29T03:38:35;102107.38;;;9.16;100.00
58658;BME280;44428;45.630;13.786;2022-12-29T03:41:04;102105.69;;;9.15;100.00
58658;BME280;44428;45.630;13.786;2022-12-29T03:43:33;102089.00;;;9.15;100.00
58658;BME280;44428;45.630;13.786;2022-12-29T03:45:59;102086.41;;;9.13;100.00
58658;BME280;44428;45.630;13.786;2022-12-29T03:48:25;102086.41;;;9.13;100.00
58658;BME280;44428;45.630;13.786;2022-12-29T03:50:53;102093.44;;;9.14;100.00
58658;BME280;44428;45.630;13.786;2022-12-29T03:53:19;102092.44;;;9.17;100.00
58658;BME280;44428;45.630;13.786;2022-12-29T03:55:45;102095.84;;;9.19;100.00
58658;BME280;44428;45.630;13.786;2022-12-29T03:58:11;102093.03;;;9.24;100.00
58658;BME280;44428;45.630;13.786;2022-12-29T04:01:01;102084.78;;;9.31;100.00
58658;BME280;44428;45.630;13.786;2022-12-29T04:03:27;102098.81;;;9.32;100.00
58658;BME280;44428;45.630;13.786;2022-12-29T04:05:53;102092.78;;;9.30;100.00
58658;BME280;44428;45.630;13.786;2022-12-29T04:08:19;102089.22;;;9.31;100.00
58658;BME280;44428;45.630;13.786;2022-12-29T04:10:44;102083.94;;;9.31;100.00
58658;BME280;44428;45.630;13.786;2022-12-29T04:13:12;102085.63;;;9.32;100.00
58658;BME280;44428;45.630;13.786;2022-12-29T04:15:38;102090.81;;;9.35;100.00
58658;BME280;44428;45.630;13.786;2022-12-29T04:18:04;102088.16;;;9.35;100.00
58658;BME280;44428;45.630;13.786;2022-12-29T04:20:30;102085.63;;;9.32;100.00
58658;BME280;44428;45.630;13.786;2022-12-29T04:23:14;102099.75;;;9.31;100.00
58658;BME280;44428;45.630;13.786;2022-12-29T04:25:40;102091.03;;;9.29;100.00
58658;BME280;44428;45.630;13.786;2022-12-29T04:28:07;102101.47;;;9.32;100.00
58658;BME280;44428;45.630;13.786;2022-12-29T04:30:36;102095.28;;;9.33;100.00
58658;BME280;44428;45.630;13.786;2022-12-29T04:33:14;102089.94;;;9.34;100.00
58658;BME280;44428;45.630;13.786;2022-12-29T04:35:42;102088.94;;;9.37;100.00
58658;BME280;44428;45.630;13.786;2022-12-29T04:38:09;102085.41;;;9.38;100.00
58658;BME280;44428;45.630;13.786;2022-12-29T04:40:38;102096.66;;;9.42;100.00
58658;BME280;44428;45.630;13.786;2022-12-29T04:43:04;102092.25;;;9.42;100.00
58658;BME280;44428;45.630;13.786;2022-12-29T04:45:34;102090.53;;;9.41;100.00
58658;BME280;44428;45.630;13.786;2022-12-29T04:48:08;102097.53;;;9.42;100.00
58658;BME280;44428;45.630;13.786;2022-12-29T04:50:44;102102.66;;;9.45;99.63
58658;BME280;44428;45.630;13.786;2022-12-29T04:53:21;102105.31;;;9.45;100.00
58658;BME280;44428;45.630;13.786;2022-12-29T04:55:51;102099.22;;;9.43;99.95
58658;BME280;44428;45.630;13.786;2022-12-29T04:58:18;102096.53;;;9.45;99.92
58658;BME280;44428;45.630;13.786;2022-12-29T05:00:43;102097.25;;;9.48;99.44
58658;BME280;44428;45.630;13.786;2022-12-29T05:03:09;102105.97;;;9.50;99.06
58658;BME280;44428;45.630;13.786;2022-12-29T05:05:38;102100.69;;;9.50;98.97
58658;BME280;44428;45.630;13.786;2022-12-29T05:08:04;102097.25;;;9.48;99.14
58658;BME280;44428;45.630;13.786;2022-12-29T05:10:30;102100.69;;;9.50;98.87
58658;BME280;44428;45.630;13.786;2022-12-29T05:12:59;102109.50;;;9.49;98.18
58658;BME280;44428;45.630;13.786;2022-12-29T05:15:26;102102.53;;;9.48;99.17
58658;BME280;44428;45.630;13.786;2022-12-29T05:17:52;102101.59;;;9.49;99.60
58658;BME280;44428;45.630;13.786;2022-12-29T05:20:18;102104.25;;;9.49;99.61
58658;BME280;44428;45.630;13.786;2022-12-29T05:22:43;102103.38;;;9.49;99.57
58658;BME280;44428;45.630;13.786;2022-12-29T05:25:10;102101.47;;;9.52;99.43
58658;BME280;44428;45.630;13.786;2022-12-29T05:27:48;102105.84;;;9.53;99.02
58658;BME280;44428;45.630;13.786;2022-12-29T05:30:23;102111.97;;;9.54;98.75
58658;BME280;44428;45.630;13.786;2022-12-29T05:32:48;102109.25;;;9.55;98.15
58658;BME280;44428;45.630;13.786;2022-12-29T05:35:14;102110.09;;;9.56;97.72
58658;BME280;44428;45.630;13.786;2022-12-29T05:37:40;102102.25;;;9.54;97.67
58658;BME280;44428;45.630;13.786;2022-12-29T05:40:07;102105.56;;;9.59;97.34
58658;BME280;44428;45.630;13.786;2022-12-29T05:42:33;102108.13;;;9.61;96.58
58658;BME280;44428;45.630;13.786;2022-12-29T05:45:25;102094.47;;;9.72;95.16
58658;BME280;44428;45.630;13.786;2022-12-29T05:47:55;102103.56;;;9.64;96.00
58658;BME280;44428;45.630;13.786;2022-12-29T05:50:26;102107.00;;;9.67;95.84
58658;BME280;44428;45.630;13.786;2022-12-29T05:53:10;102103.56;;;9.64;95.89
58658;BME280;44428;45.630;13.786;2022-12-29T05:55:37;102116.19;;;9.58;96.71
58658;BME280;44428;45.630;13.786;2022-12-29T05:58:03;102117.84;;;9.60;96.88
58658;BME280;44428;45.630;13.786;2022-12-29T06:00:29;102119.66;;;9.58;96.99
58658;BME280;44428;45.630;13.786;2022-12-29T06:02:54;102110.84;;;9.59;97.37
58658;BME280;44428;45.630;13.786;2022-12-29T06:05:20;102113.53;;;9.58;97.22
58658;BME280;44428;45.630;13.786;2022-12-29T06:07:46;102116.25;;;9.56;97.66
58658;BME280;44428;45.630;13.786;2022-12-29T06:10:15;102108.25;;;9.58;97.94
58658;BME280;44428;45.630;13.786;2022-12-29T06:12:48;102105.72;;;9.56;98.25
58658;BME280;44428;45.630;13.786;2022-12-29T06:15:14;102102.13;;;9.57;98.83
58658;BME280;44428;45.630;13.786;2022-12-29T06:17:41;102100.34;;;9.58;99.06
58658;BME280;44428;45.630;13.786;2022-12-29T06:20:08;102106.56;;;9.57;99.00
58658;BME280;44428;45.630;13.786;2022-12-29T06:22:34;102112.69;;;9.57;99.07
58658;BME280;44428;45.630;13.786;2022-12-29T06:25:00;102114.53;;;9.55;99.72
58658;BME280;44428;45.630;13.786;2022-12-29T06:27:28;102111.88;;;9.55;99.20
58658;BME280;44428;45.630;13.786;2022-12-29T06:29:54;102111.88;;;9.55;99.38
58658;BME280;44428;45.630;13.786;2022-12-29T06:32:20;102114.53;;;9.55;99.05
58658;BME280;44428;45.630;13.786;2022-12-29T06:34:50;102112.75;;;9.56;99.22
58658;BME280;44428;45.630;13.786;2022-12-29T06:37:16;102118.09;;;9.54;99.81
58658;BME280;44428;45.630;13.786;2022-12-29T06:39:41;102118.09;;;9.54;99.99
58658;BME280;44428;45.630;13.786;2022-12-29T06:42:11;102121.66;;;9.53;100.00
58658;BME280;44428;45.630;13.786;2022-12-29T06:44:45;102119.09;;;9.52;100.00
58658;BME280;44428;45.630;13.786;2022-12-29T06:47:10;102112.94;;;9.51;100.00
58658;BME280;44428;45.630;13.786;2022-12-29T06:49:36;102110.09;;;9.56;100.00
58658;BME280;44428;45.630;13.786;2022-12-29T06:52:02;102121.53;;;9.56;100.00
58658;BME280;44428;45.630;13.786;2022-12-29T06:54:30;102115.09;;;9.62;100.00
58658;BME280;44428;45.630;13.786;2022-12-29T06:56:56;102105.56;;;9.59;100.00
58658;BME280;44428;45.630;13.786;2022-12-29T06:59:23;102107.41;;;9.57;100.00
58658;BME280;44428;45.630;13.786;2022-12-29T07:01:49;102107.41;;;9.57;100.00
58658;BME280;44428;45.630;13.786;2022-12-29T07:04:15;102109.25;;;9.55;100.00
58658;BME280;44428;45.630;13.786;2022-12-29T07:06:41;102117.97;;;9.57;100.00
58658;BME280;44428;45.630;13.786;2022-12-29T07:09:08;102116.25;;;9.56;100.00
58658;BME280;44428;45.630;13.786;2022-12-29T07:11:34;102107.41;;;9.57;100.00
58658;BME280;44428;45.630;13.786;2022-12-29T07:14:00;102110.09;;;9.56;100.00
58658;BME280;44428;45.630;13.786;2022-12-29T07:16:26;102116.13;;;9.59;100.00
58658;BME280;44428;45.630;13.786;2022-12-29T07:18:55;102119.66;;;9.58;100.00
58658;BME280;44428;45.630;13.786;2022-12-29T07:21:20;102110.97;;;9.56;100.00
58658;BME280;44428;45.630;13.786;2022-12-29T07:23:57;102117.97;;;9.57;100.00
58658;BME280;44428;45.630;13.786;2022-12-29T07:27:10;102120.66;;;9.56;100.00
58658;BME280;44428;45.630;13.786;2022-12-29T07:29:37;102105.72;;;9.56;100.00
58658;BME280;44428;45.630;13.786;2022-12-29T07:32:03;102105.31;;;9.66;100.00
58658;BME280;44428;45.630;13.786;2022-12-29T07:34:28;102107.00;;;9.67;100.00
58658;BME280;44428;45.630;13.786;2022-12-29T07:36:54;102113.09;;;9.69;100.00
58658;BME280;44428;45.630;13.786;2022-12-29T07:39:20;102112.16;;;9.70;100.00
58658;BME280;44428;45.630;13.786;2022-12-29T07:41:45;102117.28;;;9.73;100.00
58658;BME280;44428;45.630;13.786;2022-12-29T07:44:16;102129.56;;;9.74;100.00
58658;BME280;44428;45.630;13.786;2022-12-29T07:47:02;102119.00;;;9.74;100.00
58658;BME280;44428;45.630;13.786;2022-12-29T07:49:28;102130.53;;;9.71;100.00
58658;BME280;44428;45.630;13.786;2022-12-29T07:51:53;102135.09;;;9.68;100.00
58658;BME280;44428;45.630;13.786;2022-12-29T07:54:24;102131.69;;;9.66;100.00
58658;BME280;44428;45.630;13.786;2022-12-29T07:56:50;102139.59;;;9.66;100.00
58658;BME280;44428;45.630;13.786;2022-12-29T07:59:16;102136.16;;;9.63;100.00
58658;BME280;44428;45.630;13.786;2022-12-29T08:01:41;102143.16;;;9.64;100.00
58658;BME280;44428;45.630;13.786;2022-12-29T08:04:07;102141.44;;;9.63;100.00
58658;BME280;44428;45.630;13.786;2022-12-29T08:06:33;102147.53;;;9.66;100.00
58658;BME280;44428;45.630;13.786;2022-12-29T08:08:59;102145.75;;;9.66;100.00
58658;BME280;44428;45.630;13.786;2022-12-29T08:11:26;102143.81;;;9.70;100.00
58658;BME280;44428;45.630;13.786;2022-12-29T08:13:52;102138.41;;;9.73;100.00
58658;BME280;44428;45.630;13.786;2022-12-29T08:16:18;102137.34;;;9.77;100.00
58658;BME280;44428;45.630;13.786;2022-12-29T08:18:43;102141.56;;;9.81;100.00
58658;BME280;44428;45.630;13.786;2022-12-29T08:21:09;102139.69;;;9.83;100.00
58658;BME280;44428;45.630;13.786;2022-12-29T08:23:35;102144.78;;;9.88;100.00
58658;BME280;44428;45.630;13.786;2022-12-29T08:26:03;102149.09;;;9.90;100.00
58658;BME280;44428;45.630;13.786;2022-12-29T08:28:30;102145.47;;;9.93;100.00
58658;BME280;44428;45.630;13.786;2022-12-29T08:31:00;102146.09;;;9.98;100.00
58658;BME280;44428;45.630;13.786;2022-12-29T08:33:27;102142.47;;;10.00;100.00
58658;BME280;44428;45.630;13.786;2022-12-29T08:35:59;102147.59;;;10.03;100.00
58658;BME280;44428;45.630;13.786;2022-12-29T08:38:25;102144.16;;;10.01;100.00
58658;BME280;44428;45.630;13.786;2022-12-29T08:40:51;102146.03;;;9.99;100.00
58658;BME280;44428;45.630;13.786;2022-12-29T08:43:17;102144.44;;;9.95;100.00
58658;BME280;44428;45.630;13.786;2022-12-29T08:45:43;102153.16;;;9.97;100.00
58658;BME280;44428;45.630;13.786;2022-12-29T08:48:08;102144.31;;;9.98;100.00
58658;BME280;44428;45.630;13.786;2022-12-29T08:50:34;102137.03;;;10.03;100.00
58658;BME280;44428;45.630;13.786;2022-12-29T08:53:00;102129.22;;;10.21;100.00
58658;BME280;44428;45.630;13.786;2022-12-29T08:55:25;102144.81;;;10.27;100.00
58658;BME280;44428;45.630;13.786;2022-12-29T08:57:52;102158.13;;;10.24;100.00
58658;BME280;44428;45.630;13.786;2022-12-29T09:00:19;102152.19;;;10.19;100.00
58658;BME280;44428;45.630;13.786;2022-12-29T09:02:46;102160.91;;;10.21;100.00
58658;BME280;44428;45.630;13.786;2022-12-29T09:05:12;102161.06;;;10.18;100.00
58658;BME280;44428;45.630;13.786;2022-12-29T09:07:37;102157.59;;;10.16;100.00
58658;BME280;44428;45.630;13.786;2022-12-29T09:10:04;102159.34;;;10.17;100.00
58658;BME280;44428;45.630;13.786;2022-12-29T09:12:30;102147.03;;;10.16;100.00
58658;BME280;44428;45.630;13.786;2022-12-29T09:14:55;102147.91;;;10.16;100.00
58658;BME280;44428;45.630;13.786;2022-12-29T09:17:21;102143.50;;;10.17;100.00
58658;BME280;44428;45.630;13.786;2022-12-29T09:20:06;102149.53;;;10.19;100.00
58658;BME280;44428;45.630;13.786;2022-12-29T09:22:32;102157.47;;;10.19;100.00
58658;BME280;44428;45.630;13.786;2022-12-29T09:24:57;102152.19;;;10.19;100.00
58658;BME280;44428;45.630;13.786;2022-12-29T09:27:23;102144.91;;;10.24;100.00
58658;BME280;44428;45.630;13.786;2022-12-29T09:29:49;102153.53;;;10.29;100.00
58658;BME280;44428;45.630;13.786;2022-12-29T09:32:15;102153.53;;;10.29;100.00
58658;BME280;44428;45.630;13.786;2022-12-29T09:34:40;102158.69;;;10.32;100.00
58658;BME280;44428;45.630;13.786;2022-12-29T09:37:06;102151.50;;;10.34;100.00
58658;BME280;44428;45.630;13.786;2022-12-29T09:39:32;102148.88;;;10.34;100.00
58658;BME280;44428;45.630;13.786;2022-12-29T09:44:44;102159.81;;;10.26;100.00
58658;BME280;44428;45.630;13.786;2022-12-29T09:47:16;102155.50;;;10.24;100.00
58658;BME280;44428;45.630;13.786;2022-12-29T09:49:48;102159.06;;;10.23;100.00
58658;BME280;44428;45.630;13.786;2022-12-29T09:52:22;102155.38;;;10.27;100.00
58658;BME280;44428;45.630;13.786;2022-12-29T09:55:13;102156.94;;;10.31;100.00
58658;BME280;44428;45.630;13.786;2022-12-29T09:57:50;102169.25;;;10.32;100.00
58658;BME280;44428;45.630;13.786;2022-12-29T10:00:28;102165.66;;;10.33;100.00
58658;BME280;44428;45.630;13.786;2022-12-29T10:03:03;102162.22;;;10.31;100.00
58658;BME280;44428;45.630;13.786;2022-12-29T10:05:56;102157.94;;;10.28;100.00
58658;BME280;44428;45.630;13.786;2022-12-29T10:14:53;102154.28;;;10.31;100.00
58658;BME280;44428;45.630;13.786;2022-12-29T10:17:40;102158.69;;;10.32;100.00
58658;BME280;44428;45.630;13.786;2022-12-29T10:20:25;102158.53;;;10.35;100.00
58658;BME280;44428;45.630;13.786;2022-12-29T10:25:38;102147.69;;;10.41;100.00
58658;BME280;44428;45.630;13.786;2022-12-29T10:28:24;102142.09;;;10.47;100.00
58658;BME280;44428;45.630;13.786;2022-12-29T10:30:57;102141.97;;;10.50;100.00
58658;BME280;44428;45.630;13.786;2022-12-29T10:33:37;102145.38;;;10.52;100.00
58658;BME280;44428;45.630;13.786;2022-12-29T10:36:18;102138.09;;;10.58;100.00
58658;BME280;44428;45.630;13.786;2022-12-29T10:44:29;102126.13;;;10.68;100.00
58658;BME280;44428;45.630;13.786;2022-12-29T10:47:02;102118.78;;;10.74;100.00
58658;BME280;44428;45.630;13.786;2022-12-29T10:49:32;102129.81;;;10.83;100.00
58658;BME280;44428;45.630;13.786;2022-12-29T10:52:02;102120.75;;;10.88;100.00
58658;BME280;44428;45.630;13.786;2022-12-29T10:54:31;102121.88;;;11.02;100.00
58658;BME280;44428;45.630;13.786;2022-12-29T10:57:01;102128.41;;;11.12;100.00
58658;BME280;44428;45.630;13.786;2022-12-29T10:59:31;102123.91;;;11.14;100.00
58658;BME280;44428;45.630;13.786;2022-12-29T11:02:15;102128.56;;;11.09;100.00
58658;BME280;44428;45.630;13.786;2022-12-29T11:05:10;102123.28;;;11.09;100.00
58658;BME280;44428;45.630;13.786;2022-12-29T11:07:39;102116.19;;;11.09;100.00
58658;BME280;44428;45.630;13.786;2022-12-29T11:10:36;102123.72;;;10.99;100.00
58658;BME280;44428;45.630;13.786;2022-12-29T11:13:14;102115.16;;;10.94;100.00
58658;BME280;44428;45.630;13.786;2022-12-29T11:15:45;102111.59;;;10.95;100.00
58658;BME280;44428;45.630;13.786;2022-12-29T11:18:33;102113.28;;;10.96;100.00
58658;BME280;44428;45.630;13.786;2022-12-29T11:21:01;102121.22;;;10.96;100.00
58658;BME280;44428;45.630;13.786;2022-12-29T11:23:39;102116.47;;;10.86;100.00
58658;BME280;44428;45.630;13.786;2022-12-29T11:28:45;102113.59;;;10.90;100.00
58658;BME280;44428;45.630;13.786;2022-12-29T11:31:16;102113.59;;;10.90;100.00
58658;BME280;44428;45.630;13.786;2022-12-29T11:33:42;102113.91;;;10.84;100.00
58658;BME280;44428;45.630;13.786;2022-12-29T11:36:13;102112.31;;;10.80;100.00
58658;BME280;44428;45.630;13.786;2022-12-29T11:38:42;102103.78;;;10.75;100.00
58658;BME280;44428;45.630;13.786;2022-12-29T11:41:13;102098.34;;;10.78;100.00
58658;BME280;44428;45.630;13.786;2022-12-29T11:43:44;102101.59;;;10.83;100.00
58658;BME280;44428;45.630;13.786;2022-12-29T11:46:19;102096.31;;;10.83;100.00
58658;BME280;44428;45.630;13.786;2022-12-29T11:48:46;102089.16;;;10.85;100.00
58658;BME280;44428;45.630;13.786;2022-12-29T11:51:21;102086.31;;;10.90;100.00
58658;BME280;44428;45.630;13.786;2022-12-29T11:53:51;102076.28;;;10.96;100.00
58658;BME280;44428;45.630;13.786;2022-12-29T11:56:21;102070.81;;;10.99;100.00
58658;BME280;44428;45.630;13.786;2022-12-29T11:58:49;102070.66;;;11.03;100.00
58658;BME280;44428;45.630;13.786;2022-12-29T12:03:46;102054.66;;;11.06;100.00
58658;BME280;44428;45.630;13.786;2022-12-29T12:06:16;102059.78;;;11.09;100.00
58658;BME280;44428;45.630;13.786;2022-12-29T12:08:48;102054.19;;;11.15;100.00
58658;BME280;44428;45.630;13.786;2022-12-29T12:11:20;102054.03;;;11.18;100.00
58658;BME280;44428;45.630;13.786;2022-12-29T12:14:01;102051.84;;;11.26;100.00
58658;BME280;44428;45.630;13.786;2022-12-29T12:16:50;102053.22;;;11.33;100.00
58658;BME280;44428;45.630;13.786;2022-12-29T12:22:13;102041.69;;;11.67;100.00
58658;BME280;44428;45.630;13.786;2022-12-29T12:25:03;102033.84;;;11.66;100.00
58658;BME280;44428;45.630;13.786;2022-12-29T12:27:41;102030.25;;;11.67;100.00
58658;BME280;44428;45.630;13.786;2022-12-29T12:30:23;102016.97;;;11.68;100.00
58658;BME280;44428;45.630;13.786;2022-12-29T12:35:38;102006.28;;;11.70;100.00
58658;BME280;44428;45.630;13.786;2022-12-29T12:40:58;102027.78;;;11.64;100.00
58658;BME280;44428;45.630;13.786;2022-12-29T12:44:20;102029.38;;;11.51;100.00
58658;BME280;44428;45.630;13.786;2022-12-29T12:46:50;102019.44;;;11.38;100.00
58658;BME280;44428;45.630;13.786;2022-12-29T12:52:04;102025.38;;;11.26;100.00
58658;BME280;44428;45.630;13.786;2022-12-29T12:59:56;102014.25;;;11.19;100.00
58658;BME280;44428;45.630;13.786;2022-12-29T13:08:12;102005.03;;;11.11;100.00
58658;BME280;44428;45.630;13.786;2022-12-29T13:13:48;101998.31;;;11.04;100.00
58658;BME280;44428;45.630;13.786;2022-12-29T13:32:48;102014.50;;;10.97;100.00
58658;BME280;44428;45.630;13.786;2022-12-29T13:37:56;102011.69;;;10.83;100.00
58658;BME280;44428;45.630;13.786;2022-12-29T13:40:26;102006.56;;;10.80;100.00
58658;BME280;44428;45.630;13.786;2022-12-29T13:42:55;102010.94;;;10.81;100.00
58658;BME280;44428;45.630;13.786;2022-12-29T13:45:25;102010.16;;;10.79;100.00
58658;BME280;44428;45.630;13.786;2022-12-29T13:48:01;102001.44;;;10.77;100.00
58658;BME280;44428;45.630;13.786;2022-12-29T13:50:34;102001.44;;;10.77;100.00
58658;BME280;44428;45.630;13.786;2022-12-29T13:53:28;102003.31;;;10.75;100.00
58658;BME280;44428;45.630;13.786;2022-12-29T13:56:19;102009.50;;;10.74;100.00
58658;BME280;44428;45.630;13.786;2022-12-29T14:04:22;102016.69;;;10.72;100.00
58658;BME280;44428;45.630;13.786;2022-12-29T14:07:00;102014.91;;;10.72;100.00
58658;BME280;44428;45.630;13.786;2022-12-29T14:09:45;102010.63;;;10.70;100.00
58658;BME280;44428;45.630;13.786;2022-12-29T14:12:31;102010.75;;;10.67;100.00
58658;BME280;44428;45.630;13.786;2022-12-29T14:17:42;102014.34;;;10.66;100.00
58658;BME280;44428;45.630;13.786;2022-12-29T14:20:22;102021.34;;;10.67;100.00
58658;BME280;44428;45.630;13.786;2022-12-29T14:22:57;102030.22;;;10.66;100.00
58658;BME280;44428;45.630;13.786;2022-12-29T14:25:52;102022.34;;;10.64;100.00
58658;BME280;44428;45.630;13.786;2022-12-29T14:28:28;102032.06;;;10.64;100.00
58658;BME280;44428;45.630;13.786;2022-12-29T14:31:04;102026.94;;;10.61;100.00
58658;BME280;44428;45.630;13.786;2022-12-29T14:33:33;102026.94;;;10.61;100.00
58658;BME280;44428;45.630;13.786;2022-12-29T14:36:21;102035.94;;;10.57;100.00
58658;BME280;44428;45.630;13.786;2022-12-29T14:38:50;102025.53;;;10.53;100.00
58658;BME280;44428;45.630;13.786;2022-12-29T14:41:39;102028.94;;;10.55;100.00
58658;BME280;44428;45.630;13.786;2022-12-29T14:44:32;102031.72;;;10.52;100.00
58658;BME280;44428;45.630;13.786;2022-12-29T14:47:00;102030.97;;;10.50;100.00
58658;BME280;44428;45.630;13.786;2022-12-29T14:49:32;102024.09;;;10.46;100.00
58658;BME280;44428;45.630;13.786;2022-12-29T14:52:07;102027.53;;;10.48;100.00